createdAt,value
2022-09-14T00:00:05.129Z,1.80
2022-09-14T00:00:36.044Z,1.70
2022-09-14T00:01:24.381Z,1.70
2022-09-14T00:01:38.669Z,1.90
2022-09-14T00:02:08.238Z,2.10
2022-09-14T00:02:39.160Z,2.30
2022-09-14T00:03:10.193Z,1.90
2022-09-14T00:03:41.102Z,1.90
2022-09-14T00:04:11.586Z,1.90
2022-09-14T00:04:42.092Z,2.00
2022-09-14T00:05:13.002Z,1.70
2022-09-14T00:05:43.912Z,1.80
2022-09-14T00:06:14.797Z,1.80
2022-09-14T00:06:45.970Z,1.70
2022-09-14T00:07:16.462Z,1.70
2022-09-14T00:07:46.951Z,1.80
2022-09-14T00:08:17.900Z,1.70
2022-09-14T00:08:48.905Z,1.70
2022-09-14T00:09:19.385Z,2.00
2022-09-14T00:09:50.487Z,1.60
2022-09-14T00:10:20.980Z,1.80
2022-09-14T00:10:51.964Z,1.60
2022-09-14T00:11:22.882Z,1.80
2022-09-14T00:11:53.796Z,1.70
2022-09-14T00:12:24.776Z,1.80
2022-09-14T00:12:55.885Z,1.90
2022-09-14T00:13:26.360Z,1.80
2022-09-14T00:13:57.346Z,2.00
2022-09-14T00:14:28.234Z,2.00
2022-09-14T00:14:59.150Z,1.80
2022-09-14T00:15:30.141Z,2.00
2022-09-14T00:16:01.227Z,2.00
2022-09-14T00:16:31.862Z,1.90
2022-09-14T00:17:02.370Z,1.90
2022-09-14T00:17:32.878Z,1.90
2022-09-14T00:18:03.864Z,1.90
2022-09-14T00:18:34.822Z,2.00
2022-09-14T00:19:05.938Z,1.80
2022-09-14T00:19:36.435Z,1.90
2022-09-14T00:20:07.422Z,1.90
2022-09-14T00:20:38.330Z,1.90
2022-09-14T00:21:09.236Z,1.70
2022-09-14T00:21:40.212Z,2.10
2022-09-14T00:22:11.305Z,1.60
2022-09-14T00:22:41.805Z,1.80
2022-09-14T00:23:12.735Z,1.80
2022-09-14T00:23:43.711Z,1.90
2022-09-14T00:24:14.700Z,2.00
2022-09-14T00:24:45.611Z,2.00
2022-09-14T00:25:16.722Z,1.70
2022-09-14T00:25:47.208Z,2.00
2022-09-14T00:26:18.202Z,1.80
2022-09-14T00:26:49.195Z,1.80
2022-09-14T00:27:20.179Z,1.80
2022-09-14T00:27:51.086Z,2.10
2022-09-14T00:28:22.242Z,1.80
2022-09-14T00:28:52.709Z,1.80
2022-09-14T00:29:23.609Z,1.80
2022-09-14T00:29:54.530Z,1.90
2022-09-14T00:30:25.434Z,1.90
2022-09-14T00:30:56.348Z,1.80
2022-09-14T00:31:27.583Z,2.00
2022-09-14T00:31:57.976Z,1.70
2022-09-14T00:32:28.811Z,1.80
2022-09-14T00:32:59.809Z,1.90
2022-09-14T00:33:30.723Z,1.90
2022-09-14T00:34:01.681Z,1.80
2022-09-14T00:34:32.704Z,1.60
2022-09-14T00:35:03.191Z,2.10
2022-09-14T00:35:34.106Z,1.80
2022-09-14T00:36:05.030Z,1.80
2022-09-14T00:36:35.964Z,2.00
2022-09-14T00:37:06.893Z,1.80
2022-09-14T00:37:38.012Z,1.90
2022-09-14T00:38:08.493Z,2.10
2022-09-14T00:38:39.401Z,2.00
2022-09-14T00:39:10.356Z,1.90
2022-09-14T00:39:41.376Z,2.00
2022-09-14T00:40:11.935Z,2.00
2022-09-14T00:40:42.637Z,1.90
2022-09-14T00:41:13.128Z,1.90
2022-09-14T00:41:44.041Z,1.90
2022-09-14T00:42:14.948Z,2.10
2022-09-14T00:42:45.923Z,1.90
2022-09-14T00:43:16.855Z,2.00
2022-09-14T00:43:48.074Z,2.20
2022-09-14T00:44:18.449Z,2.10
2022-09-14T00:44:48.859Z,2.10
2022-09-14T00:45:19.878Z,2.10
2022-09-14T00:45:50.829Z,2.00
2022-09-14T00:46:21.305Z,2.40
2022-09-14T00:46:52.409Z,2.00
2022-09-14T00:47:23.046Z,1.80
2022-09-14T00:47:53.477Z,2.00
2022-09-14T00:48:24.395Z,2.00
2022-09-14T00:48:55.310Z,1.90
2022-09-14T00:49:26.294Z,1.80
2022-09-14T00:49:57.385Z,1.90
2022-09-14T00:50:27.865Z,2.10
2022-09-14T00:50:58.776Z,2.00
2022-09-14T00:51:29.669Z,2.00
2022-09-14T00:52:00.589Z,1.90
2022-09-14T00:52:31.573Z,1.90
2022-09-14T00:53:02.749Z,1.90
2022-09-14T00:53:33.198Z,1.90
2022-09-14T00:54:04.191Z,2.00
2022-09-14T00:54:34.658Z,1.90
2022-09-14T00:55:05.569Z,1.90
2022-09-14T00:55:36.486Z,2.00
2022-09-14T00:56:07.674Z,1.90
2022-09-14T00:56:38.156Z,1.90
2022-09-14T00:57:09.077Z,2.00
2022-09-14T00:57:40.062Z,2.10
2022-09-14T00:58:10.948Z,2.10
2022-09-14T00:58:41.868Z,1.90
2022-09-14T00:59:13.045Z,2.00
2022-09-14T00:59:43.532Z,2.10
2022-09-14T01:00:14.466Z,2.20
2022-09-14T01:00:45.501Z,2.00
2022-09-14T01:01:15.987Z,2.00
2022-09-14T01:01:46.482Z,2.20
2022-09-14T01:02:17.248Z,2.10
2022-09-14T01:02:47.771Z,2.10
2022-09-14T01:03:18.686Z,2.10
2022-09-14T01:03:49.595Z,2.10
2022-09-14T01:04:20.520Z,2.20
2022-09-14T01:04:51.565Z,2.30
2022-09-14T01:05:22.215Z,2.00
2022-09-14T01:05:52.695Z,2.20
2022-09-14T01:06:23.605Z,2.20
2022-09-14T01:06:54.529Z,2.30
2022-09-14T01:07:25.442Z,2.50
2022-09-14T01:07:56.345Z,2.30
2022-09-14T01:08:27.454Z,2.00
2022-09-14T01:08:57.951Z,2.20
2022-09-14T01:09:28.948Z,2.20
2022-09-14T01:09:59.901Z,2.10
2022-09-14T01:10:30.785Z,2.00
2022-09-14T01:11:01.781Z,2.30
2022-09-14T01:11:32.953Z,2.10
2022-09-14T01:12:03.434Z,2.10
2022-09-14T01:12:34.347Z,2.20
2022-09-14T01:13:05.261Z,2.00
2022-09-14T01:13:36.282Z,2.00
2022-09-14T01:14:06.689Z,2.00
2022-09-14T01:14:37.794Z,2.30
2022-09-14T01:15:08.261Z,2.20
2022-09-14T01:15:39.175Z,2.10
2022-09-14T01:16:10.172Z,2.20
2022-09-14T01:16:40.926Z,2.20
2022-09-14T01:17:11.406Z,2.30
2022-09-14T01:17:42.505Z,2.20
2022-09-14T01:18:13.014Z,2.20
2022-09-14T01:18:43.903Z,2.20
2022-09-14T01:19:14.822Z,2.10
2022-09-14T01:19:45.744Z,2.10
2022-09-14T01:20:16.700Z,2.40
2022-09-14T01:20:47.874Z,1.90
2022-09-14T01:21:18.352Z,2.10
2022-09-14T01:21:49.266Z,2.40
2022-09-14T01:22:20.188Z,2.30
2022-09-14T01:22:51.159Z,2.30
2022-09-14T01:23:22.075Z,2.40
2022-09-14T01:23:53.184Z,2.30
2022-09-14T01:24:23.667Z,2.50
2022-09-14T01:24:54.661Z,2.20
2022-09-14T01:25:25.623Z,2.10
2022-09-14T01:25:56.607Z,2.00
2022-09-14T01:26:27.600Z,2.30
2022-09-14T01:26:58.709Z,2.40
2022-09-14T01:27:29.184Z,2.10
2022-09-14T01:28:00.071Z,2.30
2022-09-14T01:28:30.982Z,2.30
2022-09-14T01:29:01.910Z,2.40
2022-09-14T01:29:32.861Z,2.20
2022-09-14T01:30:04.047Z,2.20
2022-09-14T01:30:34.509Z,2.20
2022-09-14T01:31:05.523Z,2.20
2022-09-14T01:31:35.999Z,2.40
2022-09-14T01:32:06.455Z,2.50
2022-09-14T01:32:37.361Z,2.40
2022-09-14T01:33:08.469Z,2.50
2022-09-14T01:33:39.077Z,2.30
2022-09-14T01:34:09.495Z,2.40
2022-09-14T01:34:40.393Z,2.30
2022-09-14T01:35:14.123Z,2.20
2022-09-14T01:35:42.029Z,2.50
2022-09-14T01:36:13.123Z,2.10
2022-09-14T01:36:43.590Z,2.20
2022-09-14T01:37:14.579Z,2.40
2022-09-14T01:37:45.566Z,2.50
2022-09-14T01:38:16.474Z,2.20
2022-09-14T01:38:47.389Z,2.80
2022-09-14T01:39:18.579Z,2.50
2022-09-14T01:39:49.130Z,2.10
2022-09-14T01:40:19.707Z,2.20
2022-09-14T01:40:50.179Z,2.30
2022-09-14T01:41:21.164Z,2.40
2022-09-14T01:41:52.071Z,2.50
2022-09-14T01:42:23.174Z,2.50
2022-09-14T01:42:53.666Z,2.30
2022-09-14T01:43:24.171Z,2.20
2022-09-14T01:43:55.096Z,2.40
2022-09-14T01:44:25.999Z,2.00
2022-09-14T01:44:56.982Z,2.50
2022-09-14T01:45:28.152Z,2.50
2022-09-14T01:45:58.874Z,2.30
2022-09-14T01:46:29.353Z,2.50
2022-09-14T01:47:00.339Z,2.50
2022-09-14T01:47:31.258Z,2.30
2022-09-14T01:48:02.161Z,2.10
2022-09-14T01:48:33.278Z,2.20
2022-09-14T01:49:03.787Z,2.40
2022-09-14T01:49:34.270Z,2.40
2022-09-14T01:50:05.183Z,2.30
2022-09-14T01:50:36.178Z,2.50
2022-09-14T01:51:07.137Z,2.20
2022-09-14T01:51:38.264Z,2.30
2022-09-14T01:52:08.711Z,2.40
2022-09-14T01:52:39.615Z,2.40
2022-09-14T01:53:10.530Z,2.30
2022-09-14T01:53:41.460Z,2.50
2022-09-14T01:54:12.370Z,2.50
2022-09-14T01:54:43.484Z,2.40
2022-09-14T01:55:13.972Z,2.20
2022-09-14T01:55:44.881Z,2.50
2022-09-14T01:56:15.858Z,2.80
2022-09-14T01:56:46.784Z,2.50
2022-09-14T01:57:17.769Z,2.30
2022-09-14T01:57:48.946Z,2.20
2022-09-14T01:58:19.420Z,2.40
2022-09-14T01:58:50.305Z,2.60
2022-09-14T01:59:21.228Z,2.10
2022-09-14T01:59:52.144Z,2.60
2022-09-14T02:00:23.116Z,2.50
2022-09-14T02:00:54.379Z,2.40
2022-09-14T02:01:24.933Z,2.50
2022-09-14T02:01:55.694Z,2.30
2022-09-14T02:02:26.567Z,2.20
2022-09-14T02:02:57.190Z,2.30
2022-09-14T02:03:27.727Z,2.40
2022-09-14T02:03:58.862Z,2.30
2022-09-14T02:04:29.295Z,2.10
2022-09-14T02:05:00.210Z,2.30
2022-09-14T02:05:31.126Z,2.50
2022-09-14T02:06:02.044Z,2.60
2022-09-14T02:06:33.010Z,2.30
2022-09-14T02:07:04.117Z,2.40
2022-09-14T02:07:34.605Z,2.40
2022-09-14T02:08:05.587Z,2.40
2022-09-14T02:08:36.555Z,2.20
2022-09-14T02:09:07.467Z,2.30
2022-09-14T02:09:38.378Z,2.20
2022-09-14T02:10:09.477Z,2.30
2022-09-14T02:10:39.954Z,2.10
2022-09-14T02:11:10.878Z,2.50
2022-09-14T02:11:41.834Z,2.00
2022-09-14T02:12:12.816Z,2.20
2022-09-14T02:12:43.786Z,2.40
2022-09-14T02:13:14.889Z,2.70
2022-09-14T02:13:45.303Z,2.40
2022-09-14T02:14:16.298Z,2.40
2022-09-14T02:14:47.209Z,2.30
2022-09-14T02:15:18.133Z,2.30
2022-09-14T02:15:49.161Z,2.40
2022-09-14T02:16:19.978Z,2.20
2022-09-14T02:16:50.488Z,2.30
2022-09-14T02:17:21.412Z,2.10
2022-09-14T02:17:52.394Z,2.30
2022-09-14T02:18:23.329Z,2.50
2022-09-14T02:18:54.240Z,2.70
2022-09-14T02:19:25.428Z,2.40
2022-09-14T02:19:55.919Z,2.30
2022-09-14T02:20:26.404Z,2.30
2022-09-14T02:20:57.392Z,2.20
2022-09-14T02:21:28.312Z,2.50
2022-09-14T02:21:59.274Z,2.50
2022-09-14T02:22:30.380Z,2.20
2022-09-14T02:23:00.859Z,2.30
2022-09-14T02:23:31.790Z,2.00
2022-09-14T02:24:02.707Z,2.10
2022-09-14T02:24:33.622Z,2.20
2022-09-14T02:25:04.560Z,2.10
2022-09-14T02:25:35.672Z,2.40
2022-09-14T02:26:06.156Z,2.30
2022-09-14T02:26:37.077Z,2.00
2022-09-14T02:27:08.054Z,2.60
2022-09-14T02:27:38.942Z,2.20
2022-09-14T02:28:09.934Z,2.10
2022-09-14T02:28:41.120Z,2.20
2022-09-14T02:29:13.815Z,2.10
2022-09-14T02:30:24.085Z,2.40
2022-09-14T02:30:54.993Z,2.40
2022-09-14T02:31:26.205Z,2.10
2022-09-14T02:31:56.800Z,2.30
2022-09-14T02:32:27.318Z,2.50
2022-09-14T02:32:58.231Z,2.30
2022-09-14T02:33:29.145Z,2.40
2022-09-14T02:34:00.131Z,2.10
2022-09-14T02:34:31.309Z,2.40
2022-09-14T02:35:01.819Z,2.40
2022-09-14T02:35:32.236Z,2.40
2022-09-14T02:36:03.153Z,2.40
2022-09-14T02:36:34.079Z,2.40
2022-09-14T02:37:04.986Z,2.40
2022-09-14T02:37:36.155Z,2.50
2022-09-14T02:38:06.580Z,2.80
2022-09-14T02:38:37.571Z,2.30
2022-09-14T02:39:08.486Z,2.40
2022-09-14T02:39:39.462Z,2.50
2022-09-14T02:40:10.458Z,2.20
2022-09-14T02:40:41.388Z,2.50
2022-09-14T02:41:11.874Z,2.60
2022-09-14T02:41:42.869Z,2.30
2022-09-14T02:42:13.807Z,2.30
2022-09-14T02:42:44.774Z,2.50
2022-09-14T02:43:15.701Z,2.50
2022-09-14T02:43:46.996Z,2.20
2022-09-14T02:44:17.515Z,2.30
2022-09-14T02:44:48.435Z,2.30
2022-09-14T02:45:19.426Z,2.40
2022-09-14T02:45:50.348Z,2.60
2022-09-14T02:46:21.415Z,2.30
2022-09-14T02:46:52.184Z,2.20
2022-09-14T02:47:22.702Z,2.30
2022-09-14T02:47:53.724Z,2.20
2022-09-14T02:48:24.209Z,2.40
2022-09-14T02:48:55.132Z,2.10
2022-09-14T02:49:26.115Z,2.40
2022-09-14T02:49:57.233Z,2.20
2022-09-14T02:50:27.742Z,2.30
2022-09-14T02:50:58.161Z,2.40
2022-09-14T02:51:29.142Z,2.20
2022-09-14T02:52:00.076Z,2.20
2022-09-14T02:52:31.083Z,2.20
2022-09-14T02:53:02.246Z,2.20
2022-09-14T02:53:32.666Z,2.30
2022-09-14T02:54:03.583Z,2.10
2022-09-14T02:54:34.569Z,2.20
2022-09-14T02:55:05.486Z,2.40
2022-09-14T02:55:36.389Z,2.10
2022-09-14T02:56:07.503Z,2.60
2022-09-14T02:56:37.982Z,2.10
2022-09-14T02:57:08.879Z,2.20
2022-09-14T02:57:39.854Z,2.30
2022-09-14T02:58:10.405Z,2.20
2022-09-14T02:58:41.328Z,2.10
2022-09-14T02:59:12.512Z,2.40
2022-09-14T02:59:42.993Z,2.10
2022-09-14T03:00:13.904Z,2.20
2022-09-14T03:00:44.858Z,2.30
2022-09-14T03:01:15.475Z,2.30
2022-09-14T03:01:46.000Z,2.40
2022-09-14T03:02:16.695Z,2.10
2022-09-14T03:02:47.229Z,2.30
2022-09-14T03:03:17.733Z,2.10
2022-09-14T03:03:48.649Z,2.30
2022-09-14T03:04:19.634Z,2.30
2022-09-14T03:04:50.560Z,2.60
2022-09-14T03:05:21.763Z,2.30
2022-09-14T03:05:52.272Z,2.20
2022-09-14T03:06:23.202Z,2.30
2022-09-14T03:06:54.151Z,2.30
2022-09-14T03:07:25.066Z,2.20
2022-09-14T03:07:55.970Z,2.30
2022-09-14T03:08:27.134Z,2.40
2022-09-14T03:08:57.680Z,2.00
2022-09-14T03:09:28.101Z,2.30
2022-09-14T03:09:59.084Z,2.30
2022-09-14T03:10:30.004Z,2.20
2022-09-14T03:11:00.911Z,2.30
2022-09-14T03:11:32.101Z,2.30
2022-09-14T03:12:02.594Z,2.20
2022-09-14T03:12:33.575Z,1.80
2022-09-14T03:13:04.483Z,2.00
2022-09-14T03:13:35.440Z,2.20
2022-09-14T03:14:06.350Z,2.00
2022-09-14T03:14:37.523Z,2.40
2022-09-14T03:15:08.006Z,2.10
2022-09-14T03:15:38.982Z,2.10
2022-09-14T03:16:09.983Z,2.40
2022-09-14T03:16:40.453Z,2.20
2022-09-14T03:17:11.402Z,2.30
2022-09-14T03:17:42.505Z,2.30
2022-09-14T03:18:14.644Z,2.60
2022-09-14T03:18:43.979Z,2.30
2022-09-14T03:19:14.485Z,2.30
2022-09-14T03:19:45.477Z,2.20
2022-09-14T03:20:16.471Z,2.50
2022-09-14T03:20:47.589Z,2.30
2022-09-14T03:21:18.191Z,2.40
2022-09-14T03:21:48.691Z,2.70
2022-09-14T03:22:19.681Z,2.40
2022-09-14T03:22:50.633Z,2.30
2022-09-14T03:23:21.551Z,1.90
2022-09-14T03:23:52.715Z,2.10
2022-09-14T03:24:23.112Z,1.90
2022-09-14T03:24:54.026Z,2.20
2022-09-14T03:25:25.022Z,2.20
2022-09-14T03:25:56.008Z,2.20
2022-09-14T03:26:26.929Z,2.30
2022-09-14T03:26:58.110Z,2.30
2022-09-14T03:27:28.596Z,2.20
2022-09-14T03:27:59.547Z,1.90
2022-09-14T03:28:30.536Z,2.20
2022-09-14T03:29:01.510Z,2.00
2022-09-14T03:29:32.410Z,2.00
2022-09-14T03:30:03.502Z,2.10
2022-09-14T03:30:34.007Z,2.40
2022-09-14T03:31:05.011Z,2.20
2022-09-14T03:31:35.631Z,2.10
2022-09-14T03:32:06.088Z,2.00
2022-09-14T03:32:37.007Z,2.10
2022-09-14T03:33:08.187Z,2.20
2022-09-14T03:33:38.677Z,2.40
2022-09-14T03:34:09.640Z,2.60
2022-09-14T03:34:40.563Z,2.10
2022-09-14T03:35:11.484Z,2.40
2022-09-14T03:35:42.465Z,2.20
2022-09-14T03:36:13.578Z,2.10
2022-09-14T03:36:45.920Z,1.90
2022-09-14T03:37:14.874Z,2.10
2022-09-14T03:37:45.795Z,1.90
2022-09-14T03:38:16.779Z,2.10
2022-09-14T03:38:47.698Z,2.10
2022-09-14T03:39:18.860Z,1.90
2022-09-14T03:39:49.424Z,1.90
2022-09-14T03:40:22.108Z,2.10
2022-09-14T03:40:50.796Z,2.10
2022-09-14T03:41:21.774Z,2.00
2022-09-14T03:41:52.764Z,2.20
2022-09-14T03:42:23.938Z,2.00
2022-09-14T03:42:54.430Z,2.30
2022-09-14T03:43:25.358Z,2.10
2022-09-14T03:43:56.341Z,2.20
2022-09-14T03:44:27.301Z,2.00
2022-09-14T03:44:58.287Z,2.00
2022-09-14T03:45:29.471Z,2.20
2022-09-14T03:45:59.947Z,2.00
2022-09-14T03:46:30.974Z,2.20
2022-09-14T03:47:01.566Z,1.90
2022-09-14T03:47:32.001Z,2.30
2022-09-14T03:48:02.916Z,2.20
2022-09-14T03:48:34.021Z,2.10
2022-09-14T03:49:04.495Z,2.10
2022-09-14T03:49:35.527Z,2.00
2022-09-14T03:50:06.029Z,1.90
2022-09-14T03:50:36.940Z,1.80
2022-09-14T03:51:07.921Z,2.20
2022-09-14T03:51:39.092Z,1.80
2022-09-14T03:52:09.695Z,2.00
2022-09-14T03:52:40.182Z,1.90
2022-09-14T03:53:11.163Z,1.80
2022-09-14T03:53:42.074Z,1.90
2022-09-14T03:54:13.061Z,1.80
2022-09-14T03:54:44.251Z,1.80
2022-09-14T03:55:14.643Z,2.10
2022-09-14T03:55:45.641Z,1.80
2022-09-14T03:56:16.622Z,1.90
2022-09-14T03:56:47.535Z,1.90
2022-09-14T03:57:18.452Z,1.60
2022-09-14T03:57:49.559Z,1.90
2022-09-14T03:58:20.033Z,1.70
2022-09-14T03:58:51.024Z,1.70
2022-09-14T03:59:21.944Z,1.70
2022-09-14T03:59:52.895Z,1.80
2022-09-14T04:00:23.810Z,1.80
2022-09-14T04:00:54.919Z,1.80
2022-09-14T04:01:25.495Z,1.80
2022-09-14T04:01:55.961Z,2.00
2022-09-14T04:02:26.588Z,1.70
2022-09-14T04:02:57.148Z,2.30
2022-09-14T04:03:27.615Z,2.00
2022-09-14T04:03:58.728Z,1.90
2022-09-14T04:04:29.186Z,1.70
2022-09-14T04:05:00.169Z,1.60
2022-09-14T04:05:31.102Z,1.90
2022-09-14T04:06:02.039Z,1.90
2022-09-14T04:06:32.963Z,1.70
2022-09-14T04:07:04.118Z,1.80
2022-09-14T04:07:34.721Z,1.90
2022-09-14T04:08:05.145Z,1.70
2022-09-14T04:08:36.060Z,1.70
2022-09-14T04:09:07.053Z,1.80
2022-09-14T04:09:38.040Z,1.60
2022-09-14T04:10:09.210Z,1.60
2022-09-14T04:10:39.628Z,1.70
2022-09-14T04:11:10.540Z,1.90
2022-09-14T04:11:41.446Z,1.90
2022-09-14T04:12:12.371Z,1.90
2022-09-14T04:12:43.354Z,2.00
2022-09-14T04:13:14.468Z,1.90
2022-09-14T04:13:44.946Z,1.90
2022-09-14T04:14:15.931Z,1.60
2022-09-14T04:14:46.838Z,1.60
2022-09-14T04:15:17.799Z,1.50
2022-09-14T04:15:48.847Z,2.00
2022-09-14T04:16:19.608Z,1.70
2022-09-14T04:16:50.133Z,1.50
2022-09-14T04:17:21.038Z,1.70
2022-09-14T04:17:51.948Z,1.70
2022-09-14T04:18:22.939Z,1.60
2022-09-14T04:18:53.917Z,2.10
2022-09-14T04:19:25.057Z,1.90
2022-09-14T04:19:55.533Z,1.60
2022-09-14T04:20:26.482Z,1.80
2022-09-14T04:20:57.464Z,1.70
2022-09-14T04:21:28.385Z,1.70
2022-09-14T04:21:59.296Z,1.60
2022-09-14T04:22:30.487Z,2.00
2022-09-14T04:23:00.993Z,1.80
2022-09-14T04:23:31.481Z,1.50
2022-09-14T04:24:14.746Z,1.60
2022-09-14T04:24:34.356Z,1.80
2022-09-14T04:25:04.029Z,1.80
2022-09-14T04:25:34.524Z,1.80
2022-09-14T04:26:05.438Z,1.60
2022-09-14T04:26:36.361Z,1.60
2022-09-14T04:27:07.280Z,1.70
2022-09-14T04:27:38.202Z,1.70
2022-09-14T04:28:20.138Z,1.80
2022-09-14T04:28:40.774Z,1.70
2022-09-14T04:29:10.258Z,1.70
2022-09-14T04:29:41.197Z,1.80
2022-09-14T04:30:12.176Z,1.70
2022-09-14T04:30:43.344Z,1.70
2022-09-14T04:31:13.835Z,1.70
2022-09-14T04:31:44.365Z,1.80
2022-09-14T04:32:14.894Z,2.00
2022-09-14T04:32:45.818Z,1.60
2022-09-14T04:33:17.006Z,1.60
2022-09-14T04:33:47.794Z,1.70
2022-09-14T04:34:18.324Z,1.70
2022-09-14T04:34:49.281Z,1.30
2022-09-14T04:35:20.263Z,1.50
2022-09-14T04:35:51.235Z,1.70
2022-09-14T04:36:22.152Z,1.70
2022-09-14T04:36:53.266Z,1.70
2022-09-14T04:37:23.746Z,1.50
2022-09-14T04:37:54.732Z,1.40
2022-09-14T04:38:25.820Z,1.50
2022-09-14T04:38:56.323Z,1.50
2022-09-14T04:39:27.201Z,1.50
2022-09-14T04:39:58.338Z,1.60
2022-09-14T04:40:28.987Z,1.50
2022-09-14T04:40:59.509Z,1.50
2022-09-14T04:41:30.432Z,1.80
2022-09-14T04:42:01.348Z,1.50
2022-09-14T04:42:32.276Z,1.60
2022-09-14T04:43:03.448Z,1.60
2022-09-14T04:43:33.950Z,1.70
2022-09-14T04:44:04.867Z,1.90
2022-09-14T04:44:35.789Z,1.50
2022-09-14T04:45:06.703Z,1.70
2022-09-14T04:45:37.672Z,1.60
2022-09-14T04:46:08.861Z,1.90
2022-09-14T04:46:43.586Z,1.80
2022-09-14T04:47:11.399Z,1.90
2022-09-14T04:47:40.887Z,1.90
2022-09-14T04:48:11.831Z,1.80
2022-09-14T04:48:43.064Z,1.70
2022-09-14T04:49:13.373Z,1.60
2022-09-14T04:49:44.309Z,1.60
2022-09-14T04:50:15.219Z,1.70
2022-09-14T04:50:46.211Z,1.90
2022-09-14T04:51:17.240Z,1.50
2022-09-14T04:51:47.895Z,1.70
2022-09-14T04:52:18.312Z,1.80
2022-09-14T04:52:49.179Z,1.70
2022-09-14T04:53:20.121Z,1.60
2022-09-14T04:53:51.138Z,1.50
2022-09-14T04:54:21.655Z,1.90
2022-09-14T04:54:52.705Z,1.70
2022-09-14T04:55:23.147Z,1.50
2022-09-14T04:55:54.098Z,1.70
2022-09-14T04:56:25.034Z,1.70
2022-09-14T04:56:55.899Z,1.70
2022-09-14T04:57:26.763Z,1.70
2022-09-14T04:57:57.846Z,2.00
2022-09-14T04:58:28.266Z,1.70
2022-09-14T04:58:59.155Z,1.60
2022-09-14T04:59:30.145Z,1.80
2022-09-14T05:00:00.921Z,1.60
2022-09-14T05:00:31.357Z,1.80
2022-09-14T05:01:02.493Z,1.70
2022-09-14T05:01:32.950Z,1.60
2022-09-14T05:02:04.007Z,1.50
2022-09-14T05:02:34.819Z,1.60
2022-09-14T05:03:05.435Z,1.40
2022-09-14T05:03:35.872Z,1.50
2022-09-14T05:04:07.042Z,1.60
2022-09-14T05:04:37.619Z,1.60
2022-09-14T05:05:08.553Z,1.50
2022-09-14T05:05:44.209Z,1.50
2022-09-14T05:06:11.321Z,1.70
2022-09-14T05:06:41.441Z,1.60
2022-09-14T05:07:11.806Z,1.50
2022-09-14T05:07:42.737Z,1.70
2022-09-14T05:08:13.600Z,1.60
2022-09-14T05:08:44.484Z,1.50
2022-09-14T05:09:15.430Z,1.60
2022-09-14T05:09:46.490Z,1.60
2022-09-14T05:10:16.950Z,1.60
2022-09-14T05:10:47.822Z,1.60
2022-09-14T05:11:18.749Z,1.50
2022-09-14T05:11:49.683Z,1.60
2022-09-14T05:12:20.632Z,1.70
2022-09-14T05:12:51.773Z,1.50
2022-09-14T05:13:22.208Z,1.40
2022-09-14T05:13:53.156Z,1.60
2022-09-14T05:14:24.028Z,1.50
2022-09-14T05:14:54.954Z,1.80
2022-09-14T05:15:25.881Z,1.80
2022-09-14T05:15:57.083Z,1.80
2022-09-14T05:16:27.647Z,1.90
2022-09-14T05:16:58.139Z,2.00
2022-09-14T05:17:29.071Z,2.00
2022-09-14T05:18:00.013Z,1.70
2022-09-14T05:18:30.950Z,1.70
2022-09-14T05:19:02.117Z,1.70
2022-09-14T05:19:32.570Z,1.60
2022-09-14T05:20:03.445Z,1.90
2022-09-14T05:20:34.377Z,1.70
2022-09-14T05:21:08.396Z,1.80
2022-09-14T05:21:36.070Z,1.80
2022-09-14T05:22:07.171Z,1.60
2022-09-14T05:22:37.523Z,1.60
2022-09-14T05:23:08.391Z,1.60
2022-09-14T05:23:39.250Z,1.70
2022-09-14T05:24:10.203Z,1.70
2022-09-14T05:24:41.173Z,1.50
2022-09-14T05:25:12.274Z,1.60
2022-09-14T05:25:42.726Z,1.60
2022-09-14T05:26:13.660Z,2.10
2022-09-14T05:26:44.532Z,1.50
2022-09-14T05:27:15.458Z,1.60
2022-09-14T05:27:46.336Z,1.50
2022-09-14T05:28:17.472Z,1.70
2022-09-14T05:28:47.931Z,1.60
2022-09-14T05:29:18.832Z,1.70
2022-09-14T05:29:49.783Z,1.70
2022-09-14T05:30:20.651Z,1.60
2022-09-14T05:30:51.572Z,1.60
2022-09-14T05:31:22.707Z,1.40
2022-09-14T05:31:53.177Z,1.70
2022-09-14T05:32:24.141Z,1.70
2022-09-14T05:32:57.940Z,1.80
2022-09-14T05:33:25.834Z,1.80
2022-09-14T05:33:56.785Z,1.80
2022-09-14T05:34:27.925Z,1.90
2022-09-14T05:34:58.375Z,2.10
2022-09-14T05:35:29.236Z,1.90
2022-09-14T05:36:00.186Z,1.80
2022-09-14T05:36:31.063Z,1.70
2022-09-14T05:37:02.020Z,1.70
2022-09-14T05:37:33.141Z,1.60
2022-09-14T05:38:03.677Z,1.70
2022-09-14T05:38:34.036Z,1.50
2022-09-14T05:39:04.914Z,1.60
2022-09-14T05:39:35.911Z,1.80
2022-09-14T05:40:07.064Z,1.50
2022-09-14T05:40:37.829Z,1.60
2022-09-14T05:41:08.296Z,1.90
2022-09-14T05:41:39.270Z,1.70
2022-09-14T05:42:10.211Z,1.60
2022-09-14T05:42:41.154Z,1.50
2022-09-14T05:43:12.047Z,1.60
2022-09-14T05:43:43.227Z,1.50
2022-09-14T05:44:13.686Z,1.40
2022-09-14T05:44:44.584Z,1.50
2022-09-14T05:45:15.529Z,1.50
2022-09-14T05:45:46.483Z,1.80
2022-09-14T05:46:17.518Z,1.30
2022-09-14T05:46:48.534Z,1.40
2022-09-14T05:47:19.030Z,1.50
2022-09-14T05:47:50.045Z,1.40
2022-09-14T05:48:20.544Z,1.50
2022-09-14T05:48:51.682Z,1.70
2022-09-14T05:49:22.302Z,1.50
2022-09-14T05:49:53.358Z,1.50
2022-09-14T05:50:23.813Z,1.50
2022-09-14T05:50:54.755Z,1.40
2022-09-14T05:51:25.626Z,1.60
2022-09-14T05:51:56.488Z,1.40
2022-09-14T05:52:27.418Z,1.70
2022-09-14T05:52:58.552Z,1.70
2022-09-14T05:53:29.013Z,1.60
2022-09-14T05:53:59.963Z,1.60
2022-09-14T05:54:30.932Z,1.60
2022-09-14T05:55:01.870Z,1.80
2022-09-14T05:55:32.842Z,1.50
2022-09-14T05:56:03.960Z,1.90
2022-09-14T05:56:34.416Z,1.70
2022-09-14T05:57:05.377Z,1.70
2022-09-14T05:57:36.345Z,1.60
2022-09-14T05:58:07.287Z,2.00
2022-09-14T05:58:38.151Z,1.50
2022-09-14T05:59:09.317Z,1.70
2022-09-14T05:59:39.770Z,1.60
2022-09-14T06:00:10.751Z,1.70
2022-09-14T06:00:41.645Z,1.70
2022-09-14T06:01:12.624Z,1.70
2022-09-14T06:01:43.569Z,1.90
2022-09-14T06:02:18.009Z,1.70
2022-09-14T06:02:44.873Z,1.60
2022-09-14T06:03:15.874Z,1.90
2022-09-14T06:03:46.333Z,1.70
2022-09-14T06:04:17.283Z,1.60
2022-09-14T06:04:48.294Z,1.60
2022-09-14T06:05:19.227Z,1.60
2022-09-14T06:05:49.776Z,1.60
2022-09-14T06:06:20.657Z,1.70
2022-09-14T06:07:14.549Z,1.90
2022-09-14T06:07:23.444Z,1.60
2022-09-14T06:07:53.337Z,1.40
2022-09-14T06:08:24.559Z,1.30
2022-09-14T06:08:54.954Z,1.50
2022-09-14T06:09:28.939Z,1.40
2022-09-14T06:09:56.825Z,1.70
2022-09-14T06:10:27.850Z,1.30
2022-09-14T06:10:58.568Z,1.60
2022-09-14T06:11:29.047Z,1.40
2022-09-14T06:12:00.012Z,1.50
2022-09-14T06:12:30.977Z,1.70
2022-09-14T06:13:01.980Z,1.50
2022-09-14T06:13:32.959Z,1.60
2022-09-14T06:14:04.048Z,1.30
2022-09-14T06:14:34.536Z,1.40
2022-09-14T06:15:04.996Z,1.40
2022-09-14T06:15:35.937Z,1.50
2022-09-14T06:16:06.445Z,1.50
2022-09-14T06:16:37.425Z,1.50
2022-09-14T06:17:08.591Z,1.20
2022-09-14T06:17:39.051Z,1.20
2022-09-14T06:18:09.955Z,1.50
2022-09-14T06:18:40.969Z,1.40
2022-09-14T06:19:11.436Z,1.30
2022-09-14T06:19:42.347Z,1.40
2022-09-14T06:20:13.527Z,1.30
2022-09-14T06:20:43.977Z,1.50
2022-09-14T06:21:14.891Z,1.20
2022-09-14T06:21:45.831Z,1.40
2022-09-14T06:22:16.718Z,1.30
2022-09-14T06:22:47.629Z,1.30
2022-09-14T06:23:18.799Z,1.40
2022-09-14T06:23:49.412Z,1.40
2022-09-14T06:24:20.151Z,1.30
2022-09-14T06:24:51.122Z,1.30
2022-09-14T06:25:22.108Z,1.30
2022-09-14T06:25:52.997Z,1.40
2022-09-14T06:26:24.108Z,1.40
2022-09-14T06:26:54.589Z,1.20
2022-09-14T06:27:25.543Z,1.40
2022-09-14T06:27:56.521Z,1.60
2022-09-14T06:28:27.485Z,1.40
2022-09-14T06:28:58.494Z,1.30
2022-09-14T06:29:29.100Z,1.40
2022-09-14T06:29:59.546Z,1.40
2022-09-14T06:30:30.480Z,1.40
2022-09-14T06:31:01.441Z,1.50
2022-09-14T06:31:32.388Z,1.30
2022-09-14T06:32:03.263Z,1.40
2022-09-14T06:32:34.344Z,1.50
2022-09-14T06:33:04.817Z,1.40
2022-09-14T06:33:35.688Z,1.60
2022-09-14T06:34:06.624Z,1.30
2022-09-14T06:34:37.568Z,1.50
2022-09-14T06:35:12.284Z,1.30
2022-09-14T06:35:39.256Z,1.40
2022-09-14T06:36:09.690Z,1.40
2022-09-14T06:36:40.643Z,1.30
2022-09-14T06:37:11.616Z,1.50
2022-09-14T06:37:42.583Z,1.40
2022-09-14T06:38:13.554Z,1.40
2022-09-14T06:38:44.717Z,1.50
2022-09-14T06:39:15.263Z,1.30
2022-09-14T06:39:46.220Z,1.30
2022-09-14T06:40:17.166Z,1.50
2022-09-14T06:40:47.898Z,1.30
2022-09-14T06:41:18.854Z,1.20
2022-09-14T06:41:50.043Z,1.40
2022-09-14T06:42:20.528Z,1.30
2022-09-14T06:42:51.467Z,1.40
2022-09-14T06:43:22.442Z,1.40
2022-09-14T06:43:53.384Z,1.50
2022-09-14T06:44:24.375Z,1.40
2022-09-14T06:44:55.486Z,1.30
2022-09-14T06:45:25.978Z,1.40
2022-09-14T06:45:56.875Z,1.20
2022-09-14T06:46:27.822Z,1.30
2022-09-14T06:46:58.807Z,1.40
2022-09-14T06:47:29.247Z,1.20
2022-09-14T06:48:00.452Z,1.30
2022-09-14T06:48:30.936Z,1.30
2022-09-14T06:49:01.431Z,1.40
2022-09-14T06:49:32.420Z,1.40
2022-09-14T06:50:03.308Z,1.30
2022-09-14T06:50:34.276Z,1.30
2022-09-14T06:51:05.470Z,1.60